createdAt,value
2022-09-20T00:01:53.452Z,10.80
2022-09-20T00:04:22.263Z,10.90
2022-09-20T00:06:51.273Z,10.90
2022-09-20T00:09:21.461Z,10.90
2022-09-20T00:11:51.629Z,10.90
2022-09-20T00:14:20.384Z,10.90
2022-09-20T00:16:49.154Z,10.90
2022-09-20T00:19:23.096Z,10.90
2022-09-20T00:21:51.926Z,10.90
2022-09-20T00:24:22.087Z,10.90
2022-09-20T00:26:51.810Z,10.90
2022-09-20T00:29:20.666Z,11.00
2022-09-20T00:31:49.540Z,11.00
2022-09-20T00:34:36.103Z,11.00
2022-09-20T00:37:05.161Z,11.00
2022-09-20T00:39:35.317Z,10.90
2022-09-20T00:42:04.229Z,11.00
2022-09-20T00:44:59.268Z,11.00
2022-09-20T00:47:42.554Z,10.90
2022-09-20T00:50:28.448Z,10.90
2022-09-20T00:53:08.425Z,10.90
2022-09-20T00:55:45.655Z,11.00
2022-09-20T00:58:17.098Z,10.90
2022-09-20T01:00:48.006Z,10.90
2022-09-20T01:03:23.120Z,10.90
2022-09-20T01:05:54.136Z,10.90
2022-09-20T01:08:25.534Z,10.80
2022-09-20T01:10:55.889Z,10.80
2022-09-20T01:13:24.861Z,10.80
2022-09-20T01:15:55.702Z,10.80
2022-09-20T01:18:25.973Z,10.80
2022-09-20T01:20:55.072Z,10.80
2022-09-20T01:23:56.115Z,10.80
2022-09-20T01:27:02.862Z,10.50
2022-09-20T01:29:54.110Z,10.50
2022-09-20T01:32:33.596Z,10.60
2022-09-20T01:35:03.698Z,10.60
2022-09-20T01:37:48.653Z,10.50
2022-09-20T01:40:28.848Z,10.60
2022-09-20T01:43:12.756Z,10.60
2022-09-20T01:45:49.687Z,10.50
2022-09-20T01:48:31.157Z,10.40
2022-09-20T01:51:56.533Z,10.40
2022-09-20T01:55:28.121Z,10.40
2022-09-20T01:58:38.229Z,10.40
2022-09-20T02:02:00.731Z,10.40
2022-09-20T02:05:14.182Z,10.40
2022-09-20T02:08:08.104Z,10.40
2022-09-20T02:11:06.096Z,10.50
2022-09-20T02:14:06.449Z,10.50
2022-09-20T02:16:58.711Z,10.40
2022-09-20T02:20:09.278Z,10.50
2022-09-20T02:23:05.139Z,10.30
2022-09-20T02:26:02.863Z,10.40
2022-09-20T02:28:57.098Z,10.40
2022-09-20T02:32:07.335Z,10.40
2022-09-20T02:35:04.504Z,10.40
2022-09-20T02:37:56.405Z,10.40
2022-09-20T02:41:07.699Z,10.40
2022-09-20T02:43:49.837Z,10.30
2022-09-20T02:46:29.835Z,10.40
2022-09-20T02:49:12.109Z,10.30
2022-09-20T02:51:52.348Z,10.30
2022-09-20T02:54:36.695Z,10.40
2022-09-20T02:57:23.512Z,10.40
2022-09-20T03:00:03.353Z,10.50
2022-09-20T03:02:52.429Z,10.40
2022-09-20T03:05:27.751Z,10.50
2022-09-20T03:08:16.609Z,10.40
2022-09-20T03:10:59.596Z,10.50
2022-09-20T03:13:46.314Z,10.50
2022-09-20T03:16:29.849Z,10.50
2022-09-20T03:19:14.634Z,10.50
2022-09-20T03:21:58.438Z,10.30
2022-09-20T03:24:47.722Z,10.30
2022-09-20T03:27:26.045Z,10.30
2022-09-20T03:30:29.003Z,10.30
2022-09-20T03:33:15.189Z,10.20
2022-09-20T03:36:06.103Z,10.20
2022-09-20T03:39:13.211Z,10.20
2022-09-20T03:42:01.922Z,10.20
2022-09-20T03:45:08.219Z,10.10
2022-09-20T03:48:06.933Z,10.20
2022-09-20T03:51:05.594Z,10.20
2022-09-20T03:54:19.214Z,10.30
2022-09-20T03:57:30.172Z,10.40
2022-09-20T04:00:28.433Z,10.40
2022-09-20T04:03:24.464Z,10.40
2022-09-20T04:06:17.911Z,10.40
2022-09-20T04:09:13.447Z,10.40
2022-09-20T04:11:56.362Z,10.40
2022-09-20T04:14:40.645Z,10.40
2022-09-20T04:17:28.979Z,10.30
2022-09-20T04:20:07.019Z,10.30
2022-09-20T04:22:37.067Z,10.30
2022-09-20T04:25:18.450Z,10.30
2022-09-20T04:27:54.032Z,10.30
2022-09-20T04:30:29.894Z,10.30
2022-09-20T04:33:07.028Z,10.30
2022-09-20T04:36:07.185Z,10.20
2022-09-20T04:38:37.592Z,10.30
2022-09-20T04:41:43.539Z,10.40
2022-09-20T04:45:03.510Z,10.40
2022-09-20T04:48:24.921Z,10.40
2022-09-20T04:52:00.814Z,10.30
2022-09-20T04:55:27.104Z,10.20
2022-09-20T04:58:47.074Z,10.20
2022-09-20T05:02:27.001Z,10.20
2022-09-20T05:05:40.515Z,10.20
2022-09-20T05:09:16.917Z,10.20
2022-09-20T05:12:34.525Z,10.30
2022-09-20T05:15:24.752Z,10.30
2022-09-20T05:18:44.910Z,10.10
2022-09-20T05:21:38.248Z,10.10
2022-09-20T05:24:46.365Z,10.20
2022-09-20T05:27:37.884Z,10.20
2022-09-20T05:30:18.283Z,10.20
2022-09-20T05:32:57.647Z,10.20
2022-09-20T05:35:35.348Z,10.30
2022-09-20T05:38:16.697Z,10.20
2022-09-20T05:41:08.279Z,10.20
2022-09-20T05:43:49.377Z,10.20
2022-09-20T05:46:35.323Z,10.30
2022-09-20T05:49:21.177Z,10.30
2022-09-20T05:52:20.472Z,10.20
2022-09-20T05:55:21.959Z,10.30
2022-09-20T05:58:12.395Z,10.30
2022-09-20T06:00:50.858Z,10.30
2022-09-20T06:03:35.534Z,10.30
2022-09-20T06:06:14.777Z,10.30
2022-09-20T06:09:20.119Z,10.20
2022-09-20T06:12:15.180Z,10.10
2022-09-20T06:14:53.740Z,10.20
2022-09-20T06:17:32.118Z,10.30
2022-09-20T06:20:19.635Z,10.30
2022-09-20T06:22:53.003Z,10.30
2022-09-20T06:25:27.977Z,10.40
2022-09-20T06:28:06.268Z,10.40
2022-09-20T06:30:43.831Z,10.40
2022-09-20T06:33:18.446Z,10.40
2022-09-20T06:35:59.009Z,10.40
2022-09-20T06:39:15.158Z,10.50
2022-09-20T06:41:44.836Z,10.40
2022-09-20T06:44:14.816Z,10.40
2022-09-20T06:46:43.446Z,10.40
2022-09-20T06:49:12.035Z,10.50
2022-09-20T06:51:42.101Z,10.50
2022-09-20T06:54:20.633Z,10.40
2022-09-20T06:56:52.340Z,10.40
2022-09-20T06:59:22.456Z,10.40
2022-09-20T07:01:51.232Z,10.40
2022-09-20T07:04:19.895Z,10.40
2022-09-20T07:06:48.449Z,10.50
2022-09-20T07:09:17.801Z,10.50
2022-09-20T07:11:46.412Z,10.50
2022-09-20T07:14:15.709Z,10.50
2022-09-20T07:16:45.800Z,10.50
2022-09-20T07:19:14.514Z,10.40
2022-09-20T07:21:43.490Z,10.40
2022-09-20T07:24:15.170Z,10.40
2022-09-20T07:26:57.348Z,10.40
2022-09-20T07:29:27.235Z,10.40
2022-09-20T07:31:58.821Z,10.40
2022-09-20T07:34:27.777Z,10.40
2022-09-20T07:36:57.387Z,10.40
2022-09-20T07:39:26.149Z,10.50
2022-09-20T07:41:54.870Z,10.40
2022-09-20T07:44:24.942Z,10.40
2022-09-20T07:46:57.597Z,10.40
2022-09-20T07:49:28.721Z,10.50
2022-09-20T07:51:57.917Z,10.50
2022-09-20T07:54:27.293Z,10.50
2022-09-20T07:56:56.045Z,10.60
2022-09-20T07:59:26.100Z,10.60
2022-09-20T08:01:57.707Z,10.50
2022-09-20T08:04:26.496Z,10.50
2022-09-20T08:06:55.162Z,10.50
2022-09-20T08:09:23.861Z,10.50
2022-09-20T08:11:52.679Z,10.50
2022-09-20T08:14:21.826Z,10.50
2022-09-20T08:16:51.867Z,10.60
2022-09-20T08:19:24.321Z,10.50
2022-09-20T08:21:54.527Z,10.60
2022-09-20T08:24:23.217Z,10.60
2022-09-20T08:26:52.109Z,10.60
2022-09-20T08:29:20.859Z,10.60
2022-09-20T08:31:49.548Z,10.70
2022-09-20T08:34:18.505Z,10.80
2022-09-20T08:36:51.942Z,10.80
2022-09-20T08:42:20.877Z,10.80
2022-09-20T08:44:59.579Z,10.80
2022-09-20T08:47:32.426Z,10.80
2022-09-20T08:50:17.398Z,10.90
2022-09-20T08:52:50.833Z,10.90
2022-09-20T08:55:21.494Z,10.80
2022-09-20T08:57:53.809Z,10.90
2022-09-20T09:00:27.165Z,11.00
2022-09-20T09:02:59.421Z,10.90
2022-09-20T09:05:35.474Z,10.90
2022-09-20T09:08:16.285Z,10.80
2022-09-20T09:10:54.262Z,10.90
2022-09-20T09:13:27.878Z,10.90
2022-09-20T09:16:01.519Z,10.80
2022-09-20T09:18:37.744Z,10.70
2022-09-20T09:21:10.520Z,10.80
2022-09-20T09:23:46.645Z,10.90
2022-09-20T09:26:23.059Z,10.80
2022-09-20T09:29:17.838Z,10.80
2022-09-20T09:31:48.742Z,10.90
2022-09-20T09:34:27.405Z,10.90
2022-09-20T09:36:57.646Z,10.90
2022-09-20T09:39:30.417Z,10.90
2022-09-20T09:42:01.440Z,10.80
2022-09-20T09:44:33.949Z,10.90
2022-09-20T09:47:03.267Z,10.90
2022-09-20T09:49:36.410Z,11.00
2022-09-20T09:52:14.519Z,11.10
2022-09-20T09:54:50.642Z,11.20
2022-09-20T09:57:48.764Z,11.20
2022-09-20T10:00:22.622Z,11.30
2022-09-20T10:03:23.634Z,11.40
2022-09-20T10:06:18.564Z,11.30
2022-09-20T10:09:13.692Z,11.30
2022-09-20T10:12:05.234Z,11.40
2022-09-20T10:14:58.626Z,11.50
2022-09-20T10:17:55.896Z,11.60
2022-09-20T10:20:43.398Z,11.70
2022-09-20T10:24:01.933Z,11.80
2022-09-20T10:27:11.777Z,11.80
2022-09-20T10:29:59.314Z,11.80
2022-09-20T10:32:50.020Z,11.90
2022-09-20T10:35:34.944Z,11.80
2022-09-20T10:38:21.708Z,11.90
2022-09-20T10:42:02.732Z,12.00
2022-09-20T10:44:58.937Z,12.30
2022-09-20T10:47:36.176Z,12.70
2022-09-20T10:50:24.972Z,12.80
2022-09-20T10:53:27.249Z,12.60
2022-09-20T10:56:15.799Z,12.50
2022-09-20T10:59:19.215Z,12.50
2022-09-20T11:02:08.336Z,12.50
2022-09-20T11:05:22.085Z,12.80
2022-09-20T11:08:04.348Z,13.30
2022-09-20T11:10:40.099Z,13.50
2022-09-20T11:13:21.365Z,13.40
2022-09-20T11:16:01.083Z,13.20
2022-09-20T11:18:42.257Z,13.00
2022-09-20T11:21:20.594Z,12.70
2022-09-20T11:23:59.395Z,12.60
2022-09-20T11:26:37.627Z,12.60
2022-09-20T11:29:22.006Z,12.50
2022-09-20T11:31:56.507Z,12.30
2022-09-20T11:34:34.919Z,12.30
2022-09-20T11:37:04.398Z,12.30
2022-09-20T11:39:44.181Z,12.20
2022-09-20T11:42:20.906Z,12.20
2022-09-20T11:44:50.113Z,12.40
2022-09-20T11:47:50.024Z,12.70
2022-09-20T11:50:49.378Z,13.00
2022-09-20T11:53:42.141Z,13.20
2022-09-20T11:56:20.288Z,13.40
2022-09-20T11:58:52.717Z,13.50
2022-09-20T12:01:32.006Z,13.30
2022-09-20T12:04:30.751Z,13.10
2022-09-20T12:07:10.492Z,13.10
2022-09-20T12:09:45.357Z,13.00
2022-09-20T12:12:32.237Z,12.90
2022-09-20T12:15:04.157Z,12.90
2022-09-20T12:18:37.922Z,12.90
2022-09-20T12:21:17.587Z,12.90
2022-09-20T12:24:26.656Z,13.00
2022-09-20T12:26:57.863Z,13.00
2022-09-20T12:30:16.957Z,12.90
2022-09-20T12:32:52.094Z,12.80
2022-09-20T12:36:27.413Z,12.80
2022-09-20T12:39:06.545Z,12.80
2022-09-20T12:41:57.312Z,12.80
2022-09-20T12:44:34.223Z,12.90
2022-09-20T12:48:06.308Z,13.00
2022-09-20T12:50:52.496Z,13.00
2022-09-20T12:53:21.660Z,13.00
2022-09-20T12:56:05.524Z,13.00
2022-09-20T12:58:41.840Z,12.90
2022-09-20T13:01:35.140Z,12.80
2022-09-20T13:05:00.986Z,12.80
2022-09-20T13:07:49.423Z,12.80
2022-09-20T13:10:43.210Z,12.60
2022-09-20T13:13:31.773Z,12.70
2022-09-20T13:16:06.140Z,12.70
2022-09-20T13:18:38.859Z,12.80
2022-09-20T13:21:16.764Z,12.90
2022-09-20T13:23:52.301Z,12.90
2022-09-20T13:26:30.140Z,12.90
2022-09-20T13:29:00.345Z,13.00
2022-09-20T13:31:35.881Z,13.10
2022-09-20T13:34:22.789Z,13.10
2022-09-20T13:36:56.709Z,13.20
2022-09-20T13:39:37.421Z,13.10
2022-09-20T13:42:19.796Z,13.10
2022-09-20T13:44:49.567Z,13.10
2022-09-20T13:47:31.339Z,13.10
2022-09-20T13:50:11.839Z,13.00
2022-09-20T13:52:47.999Z,13.00
2022-09-20T13:55:29.888Z,13.00
2022-09-20T13:58:04.170Z,12.90
2022-09-20T14:00:34.893Z,12.90
2022-09-20T14:03:06.025Z,12.90
2022-09-20T14:05:35.306Z,12.80
2022-09-20T14:08:04.202Z,12.90
2022-09-20T14:10:37.247Z,12.90
2022-09-20T14:13:13.977Z,13.00
2022-09-20T14:15:47.225Z,12.90
2022-09-20T14:18:21.566Z,12.90
2022-09-20T14:20:53.459Z,12.90
2022-09-20T14:23:24.798Z,12.90
2022-09-20T14:26:24.051Z,12.80
2022-09-20T14:28:56.030Z,12.70
2022-09-20T14:31:31.209Z,12.70
2022-09-20T14:34:05.926Z,12.60
2022-09-20T14:36:35.181Z,12.60
2022-09-20T14:39:13.059Z,12.30
2022-09-20T14:41:44.986Z,12.10
2022-09-20T14:44:30.690Z,12.10
2022-09-20T14:46:59.620Z,12.20
2022-09-20T14:49:35.050Z,12.00
2022-09-20T14:52:45.498Z,12.00
2022-09-20T14:55:36.930Z,12.10
2022-09-20T14:58:12.307Z,12.10
2022-09-20T15:00:57.942Z,12.00
2022-09-20T15:03:31.856Z,12.10
2022-09-20T15:06:02.278Z,12.00
2022-09-20T15:08:42.719Z,12.00
2022-09-20T15:11:18.290Z,12.00
2022-09-20T15:13:47.701Z,12.00
2022-09-20T15:16:20.645Z,12.00
2022-09-20T15:18:49.862Z,11.90
2022-09-20T15:21:19.918Z,12.00
2022-09-20T15:23:48.705Z,11.90
2022-09-20T15:26:18.701Z,11.90
2022-09-20T15:28:47.411Z,11.80
2022-09-20T15:31:17.245Z,11.90
2022-09-20T15:33:45.815Z,11.90
2022-09-20T15:36:14.435Z,11.90
2022-09-20T15:38:45.838Z,11.70
2022-09-20T15:41:14.598Z,11.60
2022-09-20T15:43:43.580Z,11.60
2022-09-20T15:46:21.366Z,11.70
2022-09-20T15:48:50.340Z,11.60
2022-09-20T15:51:18.911Z,11.60
2022-09-20T15:54:00.206Z,11.50
2022-09-20T15:56:31.542Z,11.40
2022-09-20T15:59:03.327Z,11.40
2022-09-20T16:01:36.965Z,11.40
2022-09-20T16:04:10.793Z,11.30
2022-09-20T16:06:42.318Z,11.20
2022-09-20T16:09:14.164Z,11.30
2022-09-20T16:11:43.823Z,11.30
2022-09-20T16:14:13.467Z,11.30
2022-09-20T16:16:45.303Z,11.10
2022-09-20T16:19:24.891Z,11.20
2022-09-20T16:21:59.428Z,11.20
2022-09-20T16:24:33.477Z,11.20
2022-09-20T16:27:06.419Z,11.10
2022-09-20T16:29:36.145Z,11.10
2022-09-20T16:32:05.532Z,11.10
2022-09-20T16:34:36.938Z,11.20
2022-09-20T16:37:09.033Z,11.10
2022-09-20T16:39:42.147Z,11.10
2022-09-20T16:42:13.587Z,11.10
2022-09-20T16:44:43.905Z,11.10
2022-09-20T16:47:22.352Z,11.10
2022-09-20T16:49:54.304Z,11.00
2022-09-20T16:52:23.422Z,11.10
2022-09-20T16:54:54.973Z,11.10
2022-09-20T16:57:25.271Z,10.90
2022-09-20T16:59:55.840Z,10.90
2022-09-20T17:02:25.619Z,10.90
2022-09-20T17:04:54.983Z,10.80
2022-09-20T17:07:24.550Z,10.90
2022-09-20T17:10:01.458Z,10.90
2022-09-20T17:12:33.552Z,11.00
2022-09-20T17:15:02.799Z,11.00
2022-09-20T17:17:31.341Z,10.90
2022-09-20T17:20:00.934Z,10.90
2022-09-20T17:22:30.184Z,10.80
2022-09-20T17:25:00.583Z,10.80
2022-09-20T17:27:29.506Z,10.80
2022-09-20T17:29:58.491Z,10.70
2022-09-20T17:32:27.686Z,10.70
2022-09-20T17:34:56.777Z,10.70
2022-09-20T17:37:25.674Z,10.60
2022-09-20T17:39:54.580Z,10.70
2022-09-20T17:42:25.163Z,10.70
2022-09-20T17:44:54.500Z,10.80
2022-09-20T17:47:24.912Z,10.80
2022-09-20T17:49:55.129Z,10.90
2022-09-20T17:52:24.108Z,10.90
2022-09-20T17:54:53.381Z,10.90
2022-09-20T17:57:24.062Z,10.70
2022-09-20T17:59:53.717Z,10.80
2022-09-20T18:02:23.324Z,10.80
2022-09-20T18:04:53.793Z,10.90
2022-09-20T18:07:23.163Z,10.80
2022-09-20T18:09:52.112Z,10.80
2022-09-20T18:12:21.679Z,10.80
2022-09-20T18:14:51.890Z,10.80
2022-09-20T18:17:21.210Z,10.80
2022-09-20T18:19:50.047Z,10.80
2022-09-20T18:22:18.773Z,10.80
2022-09-20T18:24:47.425Z,10.80
2022-09-20T18:27:16.075Z,10.70
2022-09-20T18:29:45.135Z,10.60
2022-09-20T18:32:16.717Z,10.70
2022-09-20T18:34:45.347Z,10.70
2022-09-20T18:37:17.431Z,10.60
2022-09-20T18:39:46.612Z,10.60
2022-09-20T18:42:15.793Z,10.60
2022-09-20T18:44:45.998Z,10.60
2022-09-20T18:47:16.667Z,10.60
2022-09-20T18:49:46.452Z,10.60
2022-09-20T18:52:16.413Z,10.60
2022-09-20T18:54:45.504Z,10.50
2022-09-20T18:57:15.371Z,10.60
2022-09-20T18:59:54.134Z,10.60
2022-09-20T19:02:55.750Z,10.60
2022-09-20T19:05:35.979Z,10.50
2022-09-20T19:08:31.119Z,10.50
2022-09-20T19:11:05.754Z,10.50
2022-09-20T19:13:45.295Z,10.50
2022-09-20T19:16:21.545Z,10.60
2022-09-20T19:19:27.416Z,10.60
2022-09-20T19:22:10.000Z,10.50
2022-09-20T19:25:06.108Z,10.50
2022-09-20T19:27:36.332Z,10.50
2022-09-20T19:30:07.276Z,10.50
2022-09-20T19:32:36.850Z,10.50
2022-09-20T19:35:19.482Z,10.50
2022-09-20T19:38:15.638Z,10.60
2022-09-20T19:40:59.032Z,10.50
2022-09-20T19:43:58.184Z,10.50
2022-09-20T19:47:02.039Z,10.50
2022-09-20T19:49:51.460Z,10.50
2022-09-20T19:52:23.748Z,10.50
2022-09-20T19:54:57.820Z,10.50
2022-09-20T19:57:40.393Z,10.40
2022-09-20T20:00:14.821Z,10.50
2022-09-20T20:02:45.975Z,10.50
2022-09-20T20:05:18.777Z,10.50
2022-09-20T20:08:02.795Z,10.50
2022-09-20T20:10:43.218Z,10.50
2022-09-20T20:13:40.910Z,10.50
2022-09-20T20:16:16.586Z,10.50
2022-09-20T20:19:02.849Z,10.50
2022-09-20T20:21:48.939Z,10.50
2022-09-20T20:24:32.269Z,10.50
2022-09-20T20:27:00.862Z,10.50
2022-09-20T20:29:29.564Z,10.40
2022-09-20T20:31:58.265Z,10.40
2022-09-20T20:34:28.251Z,10.50
2022-09-20T20:37:00.896Z,10.40
2022-09-20T20:39:32.278Z,10.40
2022-09-20T20:42:02.636Z,10.50
2022-09-20T20:44:31.471Z,10.40
2022-09-20T20:47:00.081Z,10.40
2022-09-20T20:49:28.919Z,10.50
2022-09-20T20:51:58.579Z,10.50
2022-09-20T20:54:27.402Z,10.50
2022-09-20T20:56:57.333Z,10.50
2022-09-20T20:59:26.026Z,10.50
2022-09-20T21:01:54.733Z,10.40
2022-09-20T21:04:25.465Z,10.50
2022-09-20T21:06:54.073Z,10.50
2022-09-20T21:09:22.689Z,10.50
2022-09-20T21:11:51.288Z,10.40
2022-09-20T21:14:21.237Z,10.50
2022-09-20T21:16:50.351Z,10.40
2022-09-20T21:19:19.169Z,10.40
2022-09-20T21:21:48.988Z,10.40
2022-09-20T21:24:18.232Z,10.40
2022-09-20T21:26:48.638Z,10.40
2022-09-20T21:29:18.225Z,10.40
2022-09-20T21:31:48.754Z,10.40
2022-09-20T21:34:17.944Z,10.40
2022-09-20T21:36:46.764Z,10.40
2022-09-20T21:39:15.353Z,10.40
2022-09-20T21:41:43.981Z,10.40
2022-09-20T21:44:12.548Z,10.40
2022-09-20T21:46:43.134Z,10.40
2022-09-20T21:49:14.300Z,10.40
2022-09-20T21:51:45.302Z,10.40
2022-09-20T21:54:14.010Z,10.40
2022-09-20T21:56:42.713Z,10.40
2022-09-20T21:59:11.399Z,10.30
2022-09-20T22:01:41.409Z,10.30
2022-09-20T22:04:13.688Z,10.30
2022-09-20T22:06:44.302Z,10.40
2022-09-20T22:09:15.744Z,10.40
2022-09-20T22:11:47.244Z,10.40
2022-09-20T22:14:19.808Z,10.40
2022-09-20T22:16:51.345Z,10.40
2022-09-20T22:19:21.951Z,10.40
2022-09-20T22:21:52.113Z,10.40
2022-09-20T22:24:21.036Z,10.40
2022-09-20T22:26:51.902Z,10.50
2022-09-20T22:29:22.105Z,10.40
2022-09-20T22:31:51.411Z,10.40
2022-09-20T22:34:23.721Z,10.50
2022-09-20T22:36:52.531Z,10.40
2022-09-20T22:39:21.274Z,10.40
2022-09-20T22:41:52.336Z,10.40
2022-09-20T22:44:20.923Z,10.40
2022-09-20T22:46:50.784Z,10.40
2022-09-20T22:49:20.774Z,10.40
2022-09-20T22:51:49.344Z,10.50
2022-09-20T22:54:18.104Z,10.40
2022-09-20T22:56:46.693Z,10.40
2022-09-20T22:59:16.389Z,10.40
2022-09-20T23:01:47.716Z,10.40
2022-09-20T23:04:19.442Z,10.40
2022-09-20T23:06:55.052Z,10.40
2022-09-20T23:09:27.691Z,10.40
2022-09-20T23:11:56.622Z,10.40
2022-09-20T23:14:25.260Z,10.40
2022-09-20T23:16:54.103Z,10.50
2022-09-20T23:19:22.746Z,10.50
2022-09-20T23:21:52.724Z,10.40
2022-09-20T23:24:21.316Z,10.40
2022-09-20T23:26:49.984Z,10.40
2022-09-20T23:29:18.734Z,10.40
2022-09-20T23:31:48.652Z,10.40
2022-09-20T23:34:18.519Z,10.40
2022-09-20T23:36:47.680Z,10.40
2022-09-20T23:39:17.675Z,10.30
2022-09-20T23:41:50.858Z,10.30
2022-09-20T23:44:19.988Z,10.30
2022-09-20T23:46:48.604Z,10.20
2022-09-20T23:49:17.317Z,10.30
2022-09-20T23:51:45.977Z,10.30
2022-09-20T23:54:16.029Z,10.20
2022-09-20T23:56:44.692Z,10.30
2022-09-20T23:59:13.223Z,10.30
